sensor_id;sensor_type;location;lat;lon;timestamp;P1;durP1;ratioP1;P2;durP2;ratioP2
26211;SDS011;13951;49.516;6.094;2023-04-21T00:02:31;8.60;;;6.00;;
26211;SDS011;13951;49.516;6.094;2023-04-21T00:05:07;9.20;;;6.33;;
26211;SDS011;13951;49.516;6.094;2023-04-21T00:07:42;9.70;;;5.67;;
26211;SDS011;13951;49.516;6.094;2023-04-21T00:10:15;8.73;;;6.13;;
26211;SDS011;13951;49.516;6.094;2023-04-21T00:12:47;9.67;;;6.13;;
26211;SDS011;13951;49.516;6.094;2023-04-21T00:15:20;9.93;;;6.67;;
26211;SDS011;13951;49.516;6.094;2023-04-21T00:17:53;11.43;;;6.50;;
26211;SDS011;13951;49.516;6.094;2023-04-21T00:20:27;9.93;;;6.33;;
26211;SDS011;13951;49.516;6.094;2023-04-21T00:23:00;12.20;;;5.90;;
26211;SDS011;13951;49.516;6.094;2023-04-21T00:25:33;10.60;;;6.60;;
26211;SDS011;13951;49.516;6.094;2023-04-21T00:28:06;11.13;;;6.87;;
26211;SDS011;13951;49.516;6.094;2023-04-21T00:30:42;11.00;;;6.50;;
26211;SDS011;13951;49.516;6.094;2023-04-21T00:33:15;11.03;;;7.10;;
26211;SDS011;13951;49.516;6.094;2023-04-21T00:35:47;11.83;;;7.20;;
26211;SDS011;13951;49.516;6.094;2023-04-21T00:38:20;11.40;;;6.83;;
26211;SDS011;13951;49.516;6.094;2023-04-21T00:40:53;11.00;;;6.50;;
26211;SDS011;13951;49.516;6.094;2023-04-21T00:43:26;10.97;;;6.87;;
26211;SDS011;13951;49.516;6.094;2023-04-21T00:46:00;10.80;;;6.57;;
26211;SDS011;13951;49.516;6.094;2023-04-21T00:48:33;10.73;;;6.80;;
26211;SDS011;13951;49.516;6.094;2023-04-21T00:51:06;11.30;;;6.80;;
26211;SDS011;13951;49.516;6.094;2023-04-21T00:53:39;9.30;;;6.50;;
26211;SDS011;13951;49.516;6.094;2023-04-21T00:56:12;11.97;;;7.37;;
26211;SDS011;13951;49.516;6.094;2023-04-21T00:58:45;11.13;;;6.80;;
26211;SDS011;13951;49.516;6.094;2023-04-21T01:01:20;12.23;;;6.93;;
26211;SDS011;13951;49.516;6.094;2023-04-21T01:03:56;11.90;;;7.10;;
26211;SDS011;13951;49.516;6.094;2023-04-21T01:06:31;9.30;;;6.33;;
26211;SDS011;13951;49.516;6.094;2023-04-21T01:09:05;11.57;;;6.80;;
26211;SDS011;13951;49.516;6.094;2023-04-21T01:11:40;12.30;;;8.70;;
26211;SDS011;13951;49.516;6.094;2023-04-21T01:14:13;10.10;;;6.40;;
26211;SDS011;13951;49.516;6.094;2023-04-21T01:16:48;9.93;;;6.03;;
26211;SDS011;13951;49.516;6.094;2023-04-21T01:19:24;10.47;;;6.33;;
26211;SDS011;13951;49.516;6.094;2023-04-21T01:22:13;9.77;;;6.73;;
26211;SDS011;13951;49.516;6.094;2023-04-21T01:24:48;12.48;;;8.85;;
26211;SDS011;13951;49.516;6.094;2023-04-21T01:27:21;10.83;;;7.00;;
26211;SDS011;13951;49.516;6.094;2023-04-21T01:29:54;11.83;;;7.53;;
26211;SDS011;13951;49.516;6.094;2023-04-21T01:32:28;11.20;;;7.40;;
26211;SDS011;13951;49.516;6.094;2023-04-21T01:35:01;11.80;;;7.20;;
26211;SDS011;13951;49.516;6.094;2023-04-21T01:37:34;10.90;;;7.07;;
26211;SDS011;13951;49.516;6.094;2023-04-21T01:40:07;12.27;;;7.47;;
26211;SDS011;13951;49.516;6.094;2023-04-21T01:42:41;11.47;;;7.37;;
26211;SDS011;13951;49.516;6.094;2023-04-21T01:45:15;10.93;;;6.47;;
26211;SDS011;13951;49.516;6.094;2023-04-21T01:47:48;13.50;;;7.07;;
26211;SDS011;13951;49.516;6.094;2023-04-21T01:50:20;6.73;;;4.00;;
26211;SDS011;13951;49.516;6.094;2023-04-21T01:52:53;5.67;;;4.00;;
26211;SDS011;13951;49.516;6.094;2023-04-21T01:55:26;5.33;;;3.93;;
26211;SDS011;13951;49.516;6.094;2023-04-21T01:58:00;8.90;;;5.37;;
26211;SDS011;13951;49.516;6.094;2023-04-21T02:00:34;8.33;;;5.27;;
26211;SDS011;13951;49.516;6.094;2023-04-21T02:03:09;8.87;;;5.83;;
26211;SDS011;13951;49.516;6.094;2023-04-21T02:05:42;9.87;;;6.27;;
26211;SDS011;13951;49.516;6.094;2023-04-21T02:08:15;10.30;;;6.87;;
26211;SDS011;13951;49.516;6.094;2023-04-21T02:10:50;11.50;;;7.30;;
26211;SDS011;13951;49.516;6.094;2023-04-21T02:13:23;11.50;;;6.70;;
26211;SDS011;13951;49.516;6.094;2023-04-21T02:15:55;12.07;;;7.40;;
26211;SDS011;13951;49.516;6.094;2023-04-21T02:18:43;10.93;;;6.97;;
26211;SDS011;13951;49.516;6.094;2023-04-21T02:21:16;13.77;;;7.90;;
26211;SDS011;13951;49.516;6.094;2023-04-21T02:23:49;12.83;;;7.53;;
26211;SDS011;13951;49.516;6.094;2023-04-21T02:26:23;11.80;;;7.53;;
26211;SDS011;13951;49.516;6.094;2023-04-21T02:28:56;12.83;;;7.53;;
26211;SDS011;13951;49.516;6.094;2023-04-21T02:31:28;12.93;;;7.27;;
26211;SDS011;13951;49.516;6.094;2023-04-21T02:34:02;13.00;;;7.43;;
26211;SDS011;13951;49.516;6.094;2023-04-21T02:36:36;13.43;;;7.63;;
26211;SDS011;13951;49.516;6.094;2023-04-21T02:39:09;16.05;;;10.13;;
26211;SDS011;13951;49.516;6.094;2023-04-21T02:41:42;14.30;;;8.10;;
26211;SDS011;13951;49.516;6.094;2023-04-21T02:44:16;12.50;;;7.67;;
26211;SDS011;13951;49.516;6.094;2023-04-21T02:46:49;14.40;;;8.20;;
26211;SDS011;13951;49.516;6.094;2023-04-21T02:49:22;13.97;;;7.70;;
26211;SDS011;13951;49.516;6.094;2023-04-21T02:51:56;11.57;;;7.47;;
26211;SDS011;13951;49.516;6.094;2023-04-21T02:54:29;13.73;;;7.73;;
26211;SDS011;13951;49.516;6.094;2023-04-21T02:57:02;12.63;;;7.60;;
26211;SDS011;13951;49.516;6.094;2023-04-21T02:59:35;10.03;;;6.90;;
26211;SDS011;13951;49.516;6.094;2023-04-21T03:02:08;13.90;;;7.70;;
26211;SDS011;13951;49.516;6.094;2023-04-21T03:04:42;14.10;;;7.97;;
26211;SDS011;13951;49.516;6.094;2023-04-21T03:07:15;12.20;;;7.00;;
26211;SDS011;13951;49.516;6.094;2023-04-21T03:09:48;14.97;;;8.70;;
26211;SDS011;13951;49.516;6.094;2023-04-21T03:12:21;16.33;;;7.87;;
26211;SDS011;13951;49.516;6.094;2023-04-21T03:14:53;16.63;;;8.30;;
26211;SDS011;13951;49.516;6.094;2023-04-21T03:17:27;14.20;;;7.70;;
26211;SDS011;13951;49.516;6.094;2023-04-21T03:20:04;13.23;;;7.37;;
26211;SDS011;13951;49.516;6.094;2023-04-21T03:22:39;13.70;;;8.27;;
26211;SDS011;13951;49.516;6.094;2023-04-21T03:25:11;13.37;;;7.70;;
26211;SDS011;13951;49.516;6.094;2023-04-21T03:27:45;14.73;;;8.23;;
26211;SDS011;13951;49.516;6.094;2023-04-21T03:30:18;13.20;;;8.03;;
26211;SDS011;13951;49.516;6.094;2023-04-21T03:32:51;14.47;;;7.73;;
26211;SDS011;13951;49.516;6.094;2023-04-21T03:35:24;13.53;;;7.83;;
26211;SDS011;13951;49.516;6.094;2023-04-21T03:37:58;11.87;;;7.47;;
26211;SDS011;13951;49.516;6.094;2023-04-21T03:40:35;11.07;;;7.23;;
26211;SDS011;13951;49.516;6.094;2023-04-21T03:43:08;17.00;;;10.80;;
26211;SDS011;13951;49.516;6.094;2023-04-21T03:45:42;14.47;;;8.50;;
26211;SDS011;13951;49.516;6.094;2023-04-21T03:48:15;13.40;;;8.00;;
26211;SDS011;13951;49.516;6.094;2023-04-21T03:50:48;13.47;;;8.17;;
26211;SDS011;13951;49.516;6.094;2023-04-21T03:53:21;14.03;;;8.40;;
26211;SDS011;13951;49.516;6.094;2023-04-21T03:55:54;18.65;;;11.07;;
26211;SDS011;13951;49.516;6.094;2023-04-21T03:58:27;12.87;;;8.20;;
26211;SDS011;13951;49.516;6.094;2023-04-21T04:01:00;13.70;;;7.83;;
26211;SDS011;13951;49.516;6.094;2023-04-21T04:03:33;12.47;;;8.17;;
26211;SDS011;13951;49.516;6.094;2023-04-21T04:06:06;13.00;;;7.63;;
26211;SDS011;13951;49.516;6.094;2023-04-21T04:08:39;15.13;;;7.93;;
26211;SDS011;13951;49.516;6.094;2023-04-21T04:11:12;13.27;;;7.93;;
26211;SDS011;13951;49.516;6.094;2023-04-21T04:13:45;13.03;;;7.87;;
26211;SDS011;13951;49.516;6.094;2023-04-21T04:16:18;15.03;;;8.33;;
26211;SDS011;13951;49.516;6.094;2023-04-21T04:18:51;15.10;;;8.60;;
26211;SDS011;13951;49.516;6.094;2023-04-21T04:21:24;14.23;;;7.87;;
26211;SDS011;13951;49.516;6.094;2023-04-21T04:23:57;12.83;;;7.73;;
26211;SDS011;13951;49.516;6.094;2023-04-21T04:26:30;14.63;;;7.97;;
26211;SDS011;13951;49.516;6.094;2023-04-21T04:29:06;14.00;;;8.13;;
26211;SDS011;13951;49.516;6.094;2023-04-21T04:31:41;15.07;;;8.20;;
26211;SDS011;13951;49.516;6.094;2023-04-21T04:34:15;14.83;;;7.73;;
26211;SDS011;13951;49.516;6.094;2023-04-21T04:36:48;14.30;;;7.77;;
26211;SDS011;13951;49.516;6.094;2023-04-21T04:39:22;17.70;;;8.30;;
26211;SDS011;13951;49.516;6.094;2023-04-21T04:41:56;15.00;;;8.57;;
26211;SDS011;13951;49.516;6.094;2023-04-21T04:44:29;13.70;;;7.57;;
26211;SDS011;13951;49.516;6.094;2023-04-21T04:47:05;12.80;;;7.83;;
26211;SDS011;13951;49.516;6.094;2023-04-21T04:49:38;15.20;;;8.63;;
26211;SDS011;13951;49.516;6.094;2023-04-21T04:52:11;13.23;;;7.57;;
26211;SDS011;13951;49.516;6.094;2023-04-21T04:54:44;16.23;;;7.80;;
26211;SDS011;13951;49.516;6.094;2023-04-21T04:57:17;11.87;;;7.67;;
26211;SDS011;13951;49.516;6.094;2023-04-21T04:59:54;13.03;;;7.73;;
26211;SDS011;13951;49.516;6.094;2023-04-21T05:02:27;12.77;;;7.40;;
26211;SDS011;13951;49.516;6.094;2023-04-21T05:05:00;14.80;;;7.67;;
26211;SDS011;13951;49.516;6.094;2023-04-21T05:07:33;12.73;;;7.67;;
26211;SDS011;13951;49.516;6.094;2023-04-21T05:10:06;14.57;;;7.87;;
26211;SDS011;13951;49.516;6.094;2023-04-21T05:12:40;14.07;;;8.00;;
26211;SDS011;13951;49.516;6.094;2023-04-21T05:15:16;11.40;;;7.07;;
26211;SDS011;13951;49.516;6.094;2023-04-21T05:17:49;12.23;;;7.23;;
26211;SDS011;13951;49.516;6.094;2023-04-21T05:20:22;15.37;;;7.73;;
26211;SDS011;13951;49.516;6.094;2023-04-21T05:22:55;13.73;;;8.07;;
26211;SDS011;13951;49.516;6.094;2023-04-21T05:25:28;13.53;;;7.97;;
26211;SDS011;13951;49.516;6.094;2023-04-21T05:28:01;14.87;;;8.23;;
26211;SDS011;13951;49.516;6.094;2023-04-21T05:30:34;16.43;;;8.33;;
26211;SDS011;13951;49.516;6.094;2023-04-21T05:33:07;16.33;;;8.00;;
26211;SDS011;13951;49.516;6.094;2023-04-21T05:35:40;15.37;;;8.00;;
26211;SDS011;13951;49.516;6.094;2023-04-21T05:38:13;13.53;;;8.17;;
26211;SDS011;13951;49.516;6.094;2023-04-21T05:40:53;15.63;;;8.50;;
26211;SDS011;13951;49.516;6.094;2023-04-21T05:43:27;12.43;;;8.17;;
26211;SDS011;13951;49.516;6.094;2023-04-21T05:46:00;15.23;;;7.67;;
26211;SDS011;13951;49.516;6.094;2023-04-21T05:48:34;15.17;;;8.27;;
26211;SDS011;13951;49.516;6.094;2023-04-21T05:51:10;15.33;;;8.53;;
26211;SDS011;13951;49.516;6.094;2023-04-21T05:53:44;14.43;;;8.13;;
26211;SDS011;13951;49.516;6.094;2023-04-21T05:56:17;13.70;;;7.90;;
26211;SDS011;13951;49.516;6.094;2023-04-21T05:58:50;11.03;;;7.30;;
26211;SDS011;13951;49.516;6.094;2023-04-21T06:01:23;15.17;;;9.13;;
26211;SDS011;13951;49.516;6.094;2023-04-21T06:03:56;15.13;;;8.17;;
26211;SDS011;13951;49.516;6.094;2023-04-21T06:06:29;13.43;;;8.00;;
26211;SDS011;13951;49.516;6.094;2023-04-21T06:09:03;13.47;;;8.03;;
26211;SDS011;13951;49.516;6.094;2023-04-21T06:11:37;14.37;;;7.53;;
26211;SDS011;13951;49.516;6.094;2023-04-21T06:14:10;14.90;;;7.93;;
26211;SDS011;13951;49.516;6.094;2023-04-21T06:16:43;12.13;;;7.20;;
26211;SDS011;13951;49.516;6.094;2023-04-21T06:19:16;11.83;;;7.10;;
26211;SDS011;13951;49.516;6.094;2023-04-21T06:21:49;10.93;;;6.77;;
26211;SDS011;13951;49.516;6.094;2023-04-21T06:24:22;9.90;;;6.03;;
26211;SDS011;13951;49.516;6.094;2023-04-21T06:26:58;10.53;;;5.87;;
26211;SDS011;13951;49.516;6.094;2023-04-21T06:29:31;9.07;;;6.10;;
26211;SDS011;13951;49.516;6.094;2023-04-21T06:32:04;10.63;;;5.80;;
26211;SDS011;13951;49.516;6.094;2023-04-21T06:34:37;10.03;;;5.77;;
26211;SDS011;13951;49.516;6.094;2023-04-21T06:37:10;11.50;;;7.50;;
26211;SDS011;13951;49.516;6.094;2023-04-21T06:39:45;10.27;;;5.90;;
26211;SDS011;13951;49.516;6.094;2023-04-21T06:42:18;9.93;;;6.50;;
26211;SDS011;13951;49.516;6.094;2023-04-21T06:44:52;9.10;;;5.43;;
26211;SDS011;13951;49.516;6.094;2023-04-21T06:47:25;9.10;;;6.33;;
26211;SDS011;13951;49.516;6.094;2023-04-21T06:49:58;9.23;;;5.67;;
26211;SDS011;13951;49.516;6.094;2023-04-21T06:52:34;7.40;;;5.53;;
26211;SDS011;13951;49.516;6.094;2023-04-21T06:55:07;9.70;;;6.37;;
26211;SDS011;13951;49.516;6.094;2023-04-21T06:57:40;7.07;;;5.37;;
26211;SDS011;13951;49.516;6.094;2023-04-21T07:00:14;7.67;;;5.27;;
26211;SDS011;13951;49.516;6.094;2023-04-21T07:02:47;7.27;;;4.83;;
26211;SDS011;13951;49.516;6.094;2023-04-21T07:05:20;7.03;;;5.10;;
26211;SDS011;13951;49.516;6.094;2023-04-21T07:07:53;6.97;;;5.00;;
26211;SDS011;13951;49.516;6.094;2023-04-21T07:10:31;8.33;;;4.73;;
26211;SDS011;13951;49.516;6.094;2023-04-21T07:13:04;6.50;;;4.70;;
26211;SDS011;13951;49.516;6.094;2023-04-21T07:15:41;7.13;;;4.30;;
26211;SDS011;13951;49.516;6.094;2023-04-21T07:18:14;8.90;;;4.40;;
26211;SDS011;13951;49.516;6.094;2023-04-21T07:20:46;6.97;;;4.43;;
26211;SDS011;13951;49.516;6.094;2023-04-21T07:23:19;7.17;;;5.03;;
26211;SDS011;13951;49.516;6.094;2023-04-21T07:25:52;6.73;;;4.33;;
26211;SDS011;13951;49.516;6.094;2023-04-21T07:28:25;7.60;;;4.77;;
26211;SDS011;13951;49.516;6.094;2023-04-21T07:30:58;5.37;;;4.20;;
26211;SDS011;13951;49.516;6.094;2023-04-21T07:33:34;6.47;;;4.07;;
26211;SDS011;13951;49.516;6.094;2023-04-21T07:36:07;8.17;;;4.83;;
26211;SDS011;13951;49.516;6.094;2023-04-21T07:38:41;6.20;;;4.57;;
26211;SDS011;13951;49.516;6.094;2023-04-21T07:41:14;7.80;;;4.47;;
26211;SDS011;13951;49.516;6.094;2023-04-21T07:43:47;7.57;;;4.80;;
26211;SDS011;13951;49.516;6.094;2023-04-21T07:46:20;6.93;;;4.43;;
26211;SDS011;13951;49.516;6.094;2023-04-21T07:48:55;8.43;;;4.63;;
26211;SDS011;13951;49.516;6.094;2023-04-21T07:51:29;7.53;;;4.70;;
26211;SDS011;13951;49.516;6.094;2023-04-21T07:54:03;6.83;;;4.30;;
26211;SDS011;13951;49.516;6.094;2023-04-21T07:56:36;7.40;;;5.18;;
26211;SDS011;13951;49.516;6.094;2023-04-21T07:59:09;5.97;;;4.23;;
26211;SDS011;13951;49.516;6.094;2023-04-21T08:01:42;5.50;;;4.17;;
26211;SDS011;13951;49.516;6.094;2023-04-21T08:04:15;6.07;;;4.00;;
26211;SDS011;13951;49.516;6.094;2023-04-21T08:06:48;6.30;;;4.33;;
26211;SDS011;13951;49.516;6.094;2023-04-21T08:09:21;5.90;;;4.30;;
26211;SDS011;13951;49.516;6.094;2023-04-21T08:11:54;6.87;;;4.23;;
26211;SDS011;13951;49.516;6.094;2023-04-21T08:14:29;3.87;;;3.20;;
26211;SDS011;13951;49.516;6.094;2023-04-21T08:17:03;5.63;;;4.10;;
26211;SDS011;13951;49.516;6.094;2023-04-21T08:19:36;5.63;;;3.67;;
26211;SDS011;13951;49.516;6.094;2023-04-21T08:22:09;6.57;;;4.17;;
26211;SDS011;13951;49.516;6.094;2023-04-21T08:24:41;5.17;;;3.60;;
26211;SDS011;13951;49.516;6.094;2023-04-21T08:27:14;4.67;;;3.60;;
26211;SDS011;13951;49.516;6.094;2023-04-21T08:29:48;6.13;;;4.20;;
26211;SDS011;13951;49.516;6.094;2023-04-21T08:32:22;5.00;;;3.77;;
26211;SDS011;13951;49.516;6.094;2023-04-21T08:34:55;5.33;;;3.87;;
26211;SDS011;13951;49.516;6.094;2023-04-21T08:37:29;7.03;;;4.10;;
26211;SDS011;13951;49.516;6.094;2023-04-21T08:40:02;5.33;;;3.87;;
26211;SDS011;13951;49.516;6.094;2023-04-21T08:42:37;5.63;;;4.13;;
26211;SDS011;13951;49.516;6.094;2023-04-21T08:45:10;6.33;;;3.80;;
26211;SDS011;13951;49.516;6.094;2023-04-21T08:47:43;6.40;;;4.40;;
26211;SDS011;13951;49.516;6.094;2023-04-21T08:50:20;4.23;;;3.53;;
26211;SDS011;13951;49.516;6.094;2023-04-21T08:52:59;6.20;;;3.90;;
26211;SDS011;13951;49.516;6.094;2023-04-21T08:55:32;6.43;;;4.00;;
26211;SDS011;13951;49.516;6.094;2023-04-21T08:58:05;5.47;;;3.70;;
26211;SDS011;13951;49.516;6.094;2023-04-21T09:00:38;6.23;;;4.13;;
26211;SDS011;13951;49.516;6.094;2023-04-21T09:03:13;7.80;;;3.70;;
26211;SDS011;13951;49.516;6.094;2023-04-21T09:05:58;4.80;;;3.70;;
26211;SDS011;13951;49.516;6.094;2023-04-21T09:08:35;4.33;;;2.50;;
26211;SDS011;13951;49.516;6.094;2023-04-21T09:11:14;5.57;;;4.03;;
26211;SDS011;13951;49.516;6.094;2023-04-21T09:13:46;4.60;;;3.40;;
26211;SDS011;13951;49.516;6.094;2023-04-21T09:16:20;4.43;;;3.23;;
26211;SDS011;13951;49.516;6.094;2023-04-21T09:18:54;5.73;;;3.30;;
26211;SDS011;13951;49.516;6.094;2023-04-21T09:21:28;3.87;;;3.07;;
26211;SDS011;13951;49.516;6.094;2023-04-21T09:24:03;4.27;;;3.30;;
26211;SDS011;13951;49.516;6.094;2023-04-21T09:26:38;3.93;;;3.00;;
26211;SDS011;13951;49.516;6.094;2023-04-21T09:29:13;4.13;;;3.00;;
26211;SDS011;13951;49.516;6.094;2023-04-21T09:31:47;4.20;;;2.93;;
26211;SDS011;13951;49.516;6.094;2023-04-21T09:34:22;3.43;;;2.80;;
26211;SDS011;13951;49.516;6.094;2023-04-21T09:36:59;8.97;;;5.53;;
26211;SDS011;13951;49.516;6.094;2023-04-21T09:39:33;3.83;;;3.00;;
26211;SDS011;13951;49.516;6.094;2023-04-21T09:42:27;3.63;;;2.80;;
26211;SDS011;13951;49.516;6.094;2023-04-21T09:45:01;3.70;;;2.97;;
26211;SDS011;13951;49.516;6.094;2023-04-21T09:47:56;4.37;;;2.63;;
26211;SDS011;13951;49.516;6.094;2023-04-21T09:50:32;3.77;;;2.70;;
26211;SDS011;13951;49.516;6.094;2023-04-21T09:53:26;3.67;;;2.30;;
26211;SDS011;13951;49.516;6.094;2023-04-21T09:56:02;2.60;;;2.33;;
26211;SDS011;13951;49.516;6.094;2023-04-21T09:58:50;3.53;;;2.53;;
26211;SDS011;13951;49.516;6.094;2023-04-21T10:01:25;4.50;;;2.97;;
26211;SDS011;13951;49.516;6.094;2023-04-21T10:04:00;3.40;;;3.00;;
26211;SDS011;13951;49.516;6.094;2023-04-21T10:06:34;3.97;;;2.87;;
26211;SDS011;13951;49.516;6.094;2023-04-21T10:09:07;4.97;;;3.10;;
26211;SDS011;13951;49.516;6.094;2023-04-21T10:11:42;4.17;;;2.97;;
26211;SDS011;13951;49.516;6.094;2023-04-21T10:14:15;2.77;;;2.40;;
26211;SDS011;13951;49.516;6.094;2023-04-21T10:16:58;4.30;;;3.00;;
26211;SDS011;13951;49.516;6.094;2023-04-21T10:19:36;4.35;;;2.60;;
26211;SDS011;13951;49.516;6.094;2023-04-21T10:22:25;4.33;;;2.70;;
26211;SDS011;13951;49.516;6.094;2023-04-21T10:25:02;4.20;;;3.00;;
26211;SDS011;13951;49.516;6.094;2023-04-21T10:27:40;5.23;;;3.30;;
26211;SDS011;13951;49.516;6.094;2023-04-21T10:30:20;5.40;;;3.17;;
26211;SDS011;13951;49.516;6.094;2023-04-21T10:33:01;5.80;;;3.63;;
26211;SDS011;13951;49.516;6.094;2023-04-21T10:38:40;10.27;;;6.37;;
26211;SDS011;13951;49.516;6.094;2023-04-21T10:44:10;4.03;;;2.90;;
26211;SDS011;13951;49.516;6.094;2023-04-21T10:46:45;4.40;;;2.97;;
26211;SDS011;13951;49.516;6.094;2023-04-21T10:49:27;4.40;;;3.10;;
26211;SDS011;13951;49.516;6.094;2023-04-21T10:52:04;4.33;;;3.10;;
26211;SDS011;13951;49.516;6.094;2023-04-21T10:57:19;4.17;;;2.77;;
26211;SDS011;13951;49.516;6.094;2023-04-21T10:59:52;4.97;;;3.27;;
26211;SDS011;13951;49.516;6.094;2023-04-21T11:02:25;5.17;;;3.03;;
26211;SDS011;13951;49.516;6.094;2023-04-21T11:04:59;4.17;;;2.70;;
26211;SDS011;13951;49.516;6.094;2023-04-21T11:07:33;3.40;;;2.70;;
26211;SDS011;13951;49.516;6.094;2023-04-21T11:10:07;3.63;;;2.70;;
26211;SDS011;13951;49.516;6.094;2023-04-21T11:12:42;3.47;;;2.60;;
26211;SDS011;13951;49.516;6.094;2023-04-21T11:15:15;3.57;;;2.50;;
26211;SDS011;13951;49.516;6.094;2023-04-21T11:17:48;3.33;;;2.50;;
26211;SDS011;13951;49.516;6.094;2023-04-21T11:20:21;5.10;;;3.33;;
26211;SDS011;13951;49.516;6.094;2023-04-21T11:22:55;6.60;;;3.10;;
26211;SDS011;13951;49.516;6.094;2023-04-21T11:25:28;4.93;;;2.95;;
26211;SDS011;13951;49.516;6.094;2023-04-21T11:28:03;4.43;;;3.03;;
26211;SDS011;13951;49.516;6.094;2023-04-21T11:30:37;3.90;;;3.17;;
26211;SDS011;13951;49.516;6.094;2023-04-21T11:33:10;4.43;;;2.77;;
26211;SDS011;13951;49.516;6.094;2023-04-21T11:35:43;4.43;;;3.07;;
26211;SDS011;13951;49.516;6.094;2023-04-21T11:38:16;5.03;;;3.07;;
26211;SDS011;13951;49.516;6.094;2023-04-21T11:40:50;4.13;;;2.90;;
26211;SDS011;13951;49.516;6.094;2023-04-21T11:43:23;4.87;;;2.70;;
26211;SDS011;13951;49.516;6.094;2023-04-21T11:46:12;3.33;;;2.73;;
26211;SDS011;13951;49.516;6.094;2023-04-21T11:48:58;4.47;;;3.07;;
26211;SDS011;13951;49.516;6.094;2023-04-21T11:51:39;5.87;;;2.97;;
26211;SDS011;13951;49.516;6.094;2023-04-21T11:54:16;4.43;;;2.87;;
26211;SDS011;13951;49.516;6.094;2023-04-21T11:56:49;4.50;;;2.87;;
26211;SDS011;13951;49.516;6.094;2023-04-21T11:59:23;3.87;;;2.90;;
26211;SDS011;13951;49.516;6.094;2023-04-21T12:01:57;3.17;;;2.23;;
26211;SDS011;13951;49.516;6.094;2023-04-21T12:04:30;6.47;;;3.07;;
26211;SDS011;13951;49.516;6.094;2023-04-21T12:07:05;4.83;;;3.00;;
26211;SDS011;13951;49.516;6.094;2023-04-21T12:09:38;3.37;;;2.40;;
26211;SDS011;13951;49.516;6.094;2023-04-21T12:12:12;4.83;;;2.73;;
26211;SDS011;13951;49.516;6.094;2023-04-21T12:14:45;3.83;;;3.07;;
26211;SDS011;13951;49.516;6.094;2023-04-21T12:17:18;3.87;;;2.60;;
26211;SDS011;13951;49.516;6.094;2023-04-21T12:19:53;2.67;;;2.37;;
26211;SDS011;13951;49.516;6.094;2023-04-21T12:22:26;2.40;;;2.20;;
26211;SDS011;13951;49.516;6.094;2023-04-21T12:24:59;3.60;;;2.90;;
26211;SDS011;13951;49.516;6.094;2023-04-21T12:27:32;4.77;;;2.70;;
26211;SDS011;13951;49.516;6.094;2023-04-21T12:30:05;2.77;;;2.47;;
26211;SDS011;13951;49.516;6.094;2023-04-21T12:32:39;5.53;;;3.00;;
26211;SDS011;13951;49.516;6.094;2023-04-21T12:35:14;3.40;;;2.63;;
26211;SDS011;13951;49.516;6.094;2023-04-21T12:37:47;4.77;;;2.97;;
26211;SDS011;13951;49.516;6.094;2023-04-21T12:40:20;6.93;;;2.60;;
26211;SDS011;13951;49.516;6.094;2023-04-21T12:42:54;3.30;;;2.40;;
26211;SDS011;13951;49.516;6.094;2023-04-21T12:45:27;4.30;;;2.73;;
26211;SDS011;13951;49.516;6.094;2023-04-21T12:48:00;5.03;;;3.00;;
26211;SDS011;13951;49.516;6.094;2023-04-21T12:50:33;3.73;;;2.80;;
26211;SDS011;13951;49.516;6.094;2023-04-21T12:53:06;3.90;;;3.47;;
26211;SDS011;13951;49.516;6.094;2023-04-21T12:55:39;4.07;;;2.87;;
26211;SDS011;13951;49.516;6.094;2023-04-21T12:58:28;2.67;;;2.17;;
26211;SDS011;13951;49.516;6.094;2023-04-21T13:01:02;2.93;;;2.10;;
26211;SDS011;13951;49.516;6.094;2023-04-21T13:03:35;2.33;;;1.80;;
26211;SDS011;13951;49.516;6.094;2023-04-21T13:06:09;2.13;;;1.83;;
26211;SDS011;13951;49.516;6.094;2023-04-21T13:08:43;2.57;;;1.90;;
26211;SDS011;13951;49.516;6.094;2023-04-21T13:11:16;2.87;;;1.53;;
26211;SDS011;13951;49.516;6.094;2023-04-21T13:13:49;2.63;;;1.80;;
26211;SDS011;13951;49.516;6.094;2023-04-21T13:16:22;2.07;;;1.87;;
26211;SDS011;13951;49.516;6.094;2023-04-21T13:18:55;2.70;;;1.73;;
26211;SDS011;13951;49.516;6.094;2023-04-21T13:21:28;2.70;;;1.83;;
26211;SDS011;13951;49.516;6.094;2023-04-21T13:24:01;3.07;;;2.10;;
26211;SDS011;13951;49.516;6.094;2023-04-21T13:26:34;2.00;;;1.80;;
26211;SDS011;13951;49.516;6.094;2023-04-21T13:29:07;2.47;;;1.73;;
26211;SDS011;13951;49.516;6.094;2023-04-21T13:31:41;2.83;;;1.63;;
26211;SDS011;13951;49.516;6.094;2023-04-21T13:34:13;1.60;;;1.50;;
26211;SDS011;13951;49.516;6.094;2023-04-21T13:36:47;2.47;;;1.50;;
26211;SDS011;13951;49.516;6.094;2023-04-21T13:39:19;3.00;;;1.50;;
26211;SDS011;13951;49.516;6.094;2023-04-21T13:41:53;1.63;;;1.20;;
26211;SDS011;13951;49.516;6.094;2023-04-21T13:44:26;1.40;;;1.30;;
26211;SDS011;13951;49.516;6.094;2023-04-21T13:46:58;2.73;;;1.37;;
26211;SDS011;13951;49.516;6.094;2023-04-21T13:49:32;1.27;;;1.00;;
26211;SDS011;13951;49.516;6.094;2023-04-21T13:52:05;1.23;;;1.10;;
26211;SDS011;13951;49.516;6.094;2023-04-21T13:54:38;0.80;;;0.80;;
26211;SDS011;13951;49.516;6.094;2023-04-21T13:57:11;1.37;;;1.00;;
26211;SDS011;13951;49.516;6.094;2023-04-21T13:59:44;1.00;;;0.90;;
26211;SDS011;13951;49.516;6.094;2023-04-21T14:02:18;1.17;;;1.00;;
26211;SDS011;13951;49.516;6.094;2023-04-21T14:04:55;2.03;;;1.10;;
26211;SDS011;13951;49.516;6.094;2023-04-21T14:07:28;0.77;;;0.77;;
26211;SDS011;13951;49.516;6.094;2023-04-21T14:10:02;1.13;;;1.03;;
26211;SDS011;13951;49.516;6.094;2023-04-21T14:12:35;1.43;;;1.33;;
26211;SDS011;13951;49.516;6.094;2023-04-21T14:15:09;1.00;;;0.90;;
26211;SDS011;13951;49.516;6.094;2023-04-21T14:17:42;3.33;;;1.00;;
26211;SDS011;13951;49.516;6.094;2023-04-21T14:20:16;1.50;;;1.00;;
26211;SDS011;13951;49.516;6.094;2023-04-21T14:22:49;1.20;;;1.10;;
26211;SDS011;13951;49.516;6.094;2023-04-21T14:25:22;0.80;;;0.80;;
26211;SDS011;13951;49.516;6.094;2023-04-21T14:27:55;1.20;;;1.10;;
26211;SDS011;13951;49.516;6.094;2023-04-21T14:30:29;5.90;;;3.40;;
26211;SDS011;13951;49.516;6.094;2023-04-21T14:33:02;1.33;;;1.10;;
26211;SDS011;13951;49.516;6.094;2023-04-21T14:35:36;1.50;;;1.20;;
26211;SDS011;13951;49.516;6.094;2023-04-21T14:38:09;2.83;;;1.13;;
26211;SDS011;13951;49.516;6.094;2023-04-21T14:40:42;1.00;;;1.00;;
26211;SDS011;13951;49.516;6.094;2023-04-21T14:43:14;0.90;;;0.80;;
26211;SDS011;13951;49.516;6.094;2023-04-21T14:45:51;0.90;;;0.90;;
26211;SDS011;13951;49.516;6.094;2023-04-21T14:48:24;1.10;;;1.00;;
26211;SDS011;13951;49.516;6.094;2023-04-21T14:50:57;1.30;;;1.00;;
26211;SDS011;13951;49.516;6.094;2023-04-21T14:53:30;1.37;;;1.00;;
26211;SDS011;13951;49.516;6.094;2023-04-21T14:56:03;1.17;;;1.07;;
26211;SDS011;13951;49.516;6.094;2023-04-21T14:58:37;0.97;;;0.87;;
26211;SDS011;13951;49.516;6.094;2023-04-21T15:01:11;1.17;;;1.07;;
26211;SDS011;13951;49.516;6.094;2023-04-21T15:03:45;3.00;;;1.10;;
26211;SDS011;13951;49.516;6.094;2023-04-21T15:06:18;1.07;;;0.80;;
26211;SDS011;13951;49.516;6.094;2023-04-21T15:08:52;1.20;;;1.00;;
26211;SDS011;13951;49.516;6.094;2023-04-21T15:11:25;1.50;;;0.80;;
26211;SDS011;13951;49.516;6.094;2023-04-21T15:13:58;1.27;;;1.00;;
26211;SDS011;13951;49.516;6.094;2023-04-21T15:16:31;1.03;;;1.00;;
26211;SDS011;13951;49.516;6.094;2023-04-21T15:19:04;1.57;;;1.20;;
26211;SDS011;13951;49.516;6.094;2023-04-21T15:21:37;1.20;;;1.10;;
26211;SDS011;13951;49.516;6.094;2023-04-21T15:24:11;2.15;;;1.15;;
26211;SDS011;13951;49.516;6.094;2023-04-21T15:26:43;1.37;;;1.00;;
26211;SDS011;13951;49.516;6.094;2023-04-21T15:29:16;1.27;;;0.80;;
26211;SDS011;13951;49.516;6.094;2023-04-21T15:31:49;1.13;;;1.00;;
26211;SDS011;13951;49.516;6.094;2023-04-21T15:34:26;1.03;;;1.03;;